• Join FlightAware (Why Join?)
  • Login
  • US Flag 
01:29PM EDT


 

Airport Tracker/Info


-or-


 

Live Flight TrackerFlight Track Log ✈ ASQ5958 ✈ 06-Apr-2013 ✈ KTUS - KDEN

Flight Track Log - Related Links

Times and Time Zones

All times are in EDT time to prevent confusion due to time zone crossing. See the ASQ5958 flight status page for this flight to view local times or setup timezone preferences in your user account.

Time Position Orientation Groundspeed Altitude Reporting Facility
EDT Latitude Longitude Course Direction KTS MPH feet Rate Location/Type
12:35PM 32.0975 -110.9164 129° Southeast 177 204 3,300  Level Albuquerque Center
12:37PM 32.0614 -110.8631 129° Southeast 207 238 5,800 2,280 Climbing Albuquerque Center
12:37PM 32.0581 -110.8236 96° East 208 239 7,200 2,220 Climbing Albuquerque Center
12:38PM 32.0461 -110.7478 101° East 238 274 9,400 2,100 Climbing Albuquerque Center
12:39PM 32.0322 -110.6622 101° East 259 298 11,600 2,160 Climbing Albuquerque Center
12:40PM 32.0161 -110.5525 100° East 298 343 13,900 2,040 Climbing Albuquerque Center
12:41PM 31.9978 -110.4500 102° East 316 364 15,900 1,680 Climbing Albuquerque Center
12:42PM 31.9797 -110.3397 101° East 339 390 17,400 1,500 Climbing Albuquerque Center
12:43PM 31.9756 -110.1972 92° East 368 423 19,100 1,560 Climbing Albuquerque Center
12:44PM 32.0497 -110.1269 39° Northeast 359 413 20,700 1,200 Climbing Albuquerque Center
12:45PM 32.1458 -110.0892 18° North 363 418 21,700 960 Climbing Albuquerque Center
12:46PM 32.2500 -110.0497 18° North 386 444 22,700 960 Climbing Albuquerque Center
12:47PM 32.3531 -110.0044 20° North 392 451 23,700 960 Climbing Albuquerque Center
12:49PM 32.4603 -109.9628 18° North 402 463 24,700 1,320 Climbing Albuquerque Center
12:50PM 32.5864 -109.9103 19° North 403 464 26,500 1,740 Climbing Albuquerque Center
12:51PM 32.6875 -109.8689 19° North 395 455 28,300 1,680 Climbing Albuquerque Center
12:52PM 32.7822 -109.8275 20° North 375 432 30,000 1,680 Climbing Albuquerque Center
12:53PM 32.8761 -109.7886 19° North 364 419 31,800 1,380 Climbing Albuquerque Center
12:54PM 32.9675 -109.7503 19° North 355 409 32,900 1,140 Climbing Albuquerque Center
12:55PM 33.0800 -109.7042 19° North 355 409 34,200 1,080 Climbing Albuquerque Center
12:56PM 33.1736 -109.6644 20° North 357 411 35,200 960 Climbing Albuquerque Center
12:57PM 33.2672 -109.6247 20° North 358 412 36,300 840 Climbing Albuquerque Center
12:58PM 33.3586 -109.5864 19° North 353 406 37,000 300 Climbing Albuquerque Center
12:59PM 33.4517 -109.5481 19° North 352 405 37,000  Level Albuquerque Center
01:00PM 33.5506 -109.5056 20° North 366 421 37,000  Level Albuquerque Center
01:01PM 33.6767 -109.4528 19° North 391 450 37,000  Level Albuquerque Center
01:02PM 33.7842 -109.4078 19° North 403 464 37,000  Level Albuquerque Center
01:03PM 33.8922 -109.3619 19° North 411 473 37,000  Level Albuquerque Center
01:04PM 34.0000 -109.3158 20° North 413 475 37,000  Level Albuquerque Center
01:05PM 34.1078 -109.2689 20° North 413 475 37,000  Level Albuquerque Center
01:06PM 34.2158 -109.2239 19° North 413 475 37,000  Level Albuquerque Center
01:07PM 34.3425 -109.1675 20° North 411 473 37,000  Level Albuquerque Center
01:08PM 34.4467 -109.1233 19° North 412 474 37,000  Level Albuquerque Center
01:09PM 34.5681 -109.0708 20° North 414 476 37,000  Level Albuquerque Center
01:10PM 34.6706 -109.0258 20° North 410 472 37,000  Level Albuquerque Center
01:11PM 34.7914 -108.9736 20° North 411 473 37,000  Level Albuquerque Center
01:12PM 34.8950 -108.9286 20° North 412 474 37,000  Level Albuquerque Center
01:13PM 35.0147 -108.8761 20° North 410 472 37,000  Level Albuquerque Center
01:14PM 35.1183 -108.8311 20° North 412 474 37,000  Level Albuquerque Center
01:15PM 35.2400 -108.7769 20° North 415 478 37,000  Level Albuquerque Center
01:16PM 35.3422 -108.7336 19° North 410 472 37,000  Level Albuquerque Center
01:17PM 35.4628 -108.6789 20° North 412 474 37,000  Level Albuquerque Center
01:18PM 35.5672 -108.6331 20° North 415 478 37,000  Level Albuquerque Center
01:19PM 35.6878 -108.5786 20° North 414 476 37,000  Level Albuquerque Center
01:21PM 35.7878 -108.5206 25° Northeast 417 480 37,000  Level Albuquerque Center
01:22PM 35.8969 -108.4267 35° Northeast 430 495 37,000  Level Albuquerque Center
01:23PM 35.9892 -108.3453 36° Northeast 429 494 37,000  Level Albuquerque Center
01:24PM 36.0978 -108.2497 35° Northeast 430 495 37,000  Level Albuquerque Center
01:25PM 36.1917 -108.1675 35° Northeast 432 497 37,000  Level Denver Center
01:26PM 36.2847 -108.0839 36° Northeast 433 498 37,000  Level Denver Center
01:27PM 36.3936 -107.9867 36° Northeast 433 498 37,000  Level Denver Center
01:28PM 36.4869 -107.9019 36° Northeast 433 498 37,000  Level Denver Center
01:29PM 36.5972 -107.8050 35° Northeast 435 501 37,000  Level Denver Center
01:30PM 36.6908 -107.7183 37° Northeast 437 503 37,000  Level Denver Center
01:31PM 36.8019 -107.6197 35° Northeast 438 504 37,000  Level Denver Center
01:32PM 36.8961 -107.5344 36° Northeast 436 502 37,000  Level Denver Center
01:33PM 36.9911 -107.4483 36° Northeast 440 506 37,000  Level Denver Center
01:34PM 37.1011 -107.3478 36° Northeast 438 504 37,000  Level Denver Center
01:35PM 37.1967 -107.2608 36° Northeast 442 509 37,000  Level Denver Center
01:36PM 37.3067 -107.1594 36° Northeast 440 506 37,000  Level Denver Center
01:37PM 37.4025 -107.0719 36° Northeast 440 506 37,000  Level Denver Center
01:38PM 37.5144 -106.9689 36° Northeast 447 514 37,000  Level Denver Center
01:39PM 37.6100 -106.8794 37° Northeast 448 516 37,000  Level Denver Center
01:40PM 37.7200 -106.7758 37° Northeast 441 507 37,000  Level Denver Center
01:41PM 37.8142 -106.6886 36° Northeast 437 503 37,000  Level Denver Center
01:42PM 37.9194 -106.5903 36° Northeast 440 506 37,000  Level Denver Center
01:43PM 38.0114 -106.5050 36° Northeast 438 504 37,000  Level Denver Center
01:44PM 38.1128 -106.4092 37° Northeast 440 506 37,000  Level Denver Center
01:45PM 38.2119 -106.3156 37° Northeast 443 510 37,000 -240 Level Denver Center
01:46PM 38.3106 -106.2217 37° Northeast 443 510 36,600 -660 Descending Denver Center
01:47PM 38.4247 -106.1125 37° Northeast 457 526 35,700 -900 Descending Denver Center
01:48PM 38.5358 -106.0058 37° Northeast 449 517 34,800 -780 Descending Denver Center
01:49PM 38.6292 -105.9167 37° Northeast 448 516 34,100 -1,620 Descending Denver Center
01:50PM 38.7319 -105.8169 37° Northeast 456 525 31,500 -2,700 Descending Denver Center
01:51PM 38.8369 -105.7158 37° Northeast 465 535 28,600 -2,820 Descending Denver Center
01:52PM 38.9489 -105.6058 37° Northeast 483 556 25,800 -2,820 Descending Denver Center
01:53PM 39.0636 -105.4944 37° Northeast 468 539 22,900 -2,580 Descending Denver Center
01:55PM 39.1844 -105.3775 37° Northeast 436 502 20,000 -1,980 Descending Denver Center
01:56PM 39.2578 -105.2853 44° Northeast 358 412 18,500 -1,560 Descending Denver Center
01:57PM 39.2858 -105.1522 75° East 353 406 16,800 -1,380 Descending Denver Center
01:58PM 39.3086 -105.0333 76° East 345 397 15,700 -1,080 Descending Denver Center
01:59PM 39.3378 -104.9211 71° East 335 386 14,600 -960 Descending Denver Center
02:00PM 39.3839 -104.8294 57° Northeast 293 337 13,800 -780 Descending Denver Center
02:01PM 39.4458 -104.7608 41° Northeast 297 342 13,100 -780 Descending Denver Center
02:02PM 39.5161 -104.7072 30° Northeast 273 314 12,200 -1,200 Descending Denver Center
02:03PM 39.5836 -104.6608 28° Northeast 276 318 10,700 -1,620 Descending Denver Center
02:04PM 39.6656 -104.6633 359° North 274 315 9,000 -1,680 Descending Denver Center
02:05PM 39.7364 -104.6619 North 259 298 7,300 -1,440 Descending Denver Center
02:06PM 39.7958 -104.6608 North 194 223 6,100 -960 Descending Denver Center
02:07PM 39.8381 -104.6608 360° North 158 182 5,400 -720 Descending Denver Center
02:09PM 39.8500 -104.6667 North  Level FlightAware Approximate
02:16PM 39.8617 -104.6732 North  Level Estimated
02:17PM 39.8617 -104.6732 North  Level Estimated
02:18PM 39.8617 -104.6732 North  Level Estimated